Time;durP1;ratioP1;P1;durP2;ratioP2;P2;SDS_P1;SDS_P2;PMS_P1;PMS_P2;Temp;Humidity;BMP_temperature;BMP_pressure;BME280_temperature;BME280_humidity;BME280_pressure;Samples;Min_cycle;Max_cycle;Signal;HPM_P1;HPM_P2
2021/03/26 00:01:30;;;;;;;16.20;8.43;;;5.90;99.90;;;;;;20996559;28;20052;-78
2021/03/26 00:11:33;;;;;;;18.45;7.55;;;5.80;99.90;;;;;;21000206;28;20071;-78
2021/03/26 00:21:34;;;;;;;14.82;7.63;;;5.70;99.90;;;;;;21000795;28;20052;-77
2021/03/26 00:31:35;;;;;;;13.40;7.40;;;5.80;99.90;;;;;;20994997;28;20048;-77
2021/03/26 00:41:36;;;;;;;13.17;7.17;;;5.20;99.90;;;;;;20991323;28;20032;-77
2021/03/26 00:51:38;;;;;;;17.50;7.13;;;4.60;99.90;;;;;;20976902;28;20174;-76
2021/03/26 01:01:40;;;;;;;20.38;7.65;;;4.70;99.90;;;;;;20976300;28;20119;-77
2021/03/26 01:11:41;;;;;;;13.73;7.15;;;4.80;99.90;;;;;;20989621;28;20382;-76
2021/03/26 01:21:42;;;;;;;18.65;7.85;;;4.50;99.90;;;;;;20989391;28;20534;-77
2021/03/26 01:31:45;;;;;;;14.02;7.22;;;4.40;99.90;;;;;;21008215;28;20453;-78
2021/03/26 01:41:48;;;;;;;18.60;7.80;;;4.30;99.90;;;;;;20988484;28;20033;-77
2021/03/26 01:51:54;;;;;;;17.65;7.82;;;4.40;99.90;;;;;;21004162;28;20036;-78
2021/03/26 02:02:05;;;;;;;14.93;7.93;;;4.20;99.90;;;;;;21005293;28;20059;-77
2021/03/26 02:12:26;;;;;;;16.67;8.23;;;3.90;99.90;;;;;;21020688;28;20466;-78
2021/03/26 02:22:30;;;;;;;17.07;8.40;;;3.80;99.90;;;;;;21002859;28;20070;-78
2021/03/26 02:32:38;;;;;;;15.65;8.45;;;3.70;99.90;;;;;;21000132;28;20044;-78
2021/03/26 02:42:41;;;;;;;21.10;8.85;;;3.70;99.90;;;;;;21029637;23;20033;-77
2021/03/26 02:53:05;;;;;;;14.20;7.43;;;3.80;99.90;;;;;;20997684;28;20111;-76
2021/03/26 03:03:09;;;;;;;18.25;7.57;;;3.30;99.90;;;;;;21000135;28;20032;-76
2021/03/26 03:13:38;;;;;;;15.07;7.35;;;3.20;99.90;;;;;;20997782;28;20119;-76
2021/03/26 03:23:55;;;;;;;18.38;7.40;;;3.30;99.90;;;;;;20996046;28;20028;-75
2021/03/26 03:34:34;;;;;;;22.75;8.32;;;2.80;99.90;;;;;;20994804;28;20028;-76
2021/03/26 03:44:45;;;;;;;21.17;9.18;;;2.60;99.90;;;;;;20996118;28;20041;-76
2021/03/26 03:55:02;;;;;;;18.87;8.50;;;2.60;99.90;;;;;;20997534;28;20406;-77
2021/03/26 04:05:32;;;;;;;18.98;8.68;;;2.60;99.90;;;;;;20998232;28;20036;-77
2021/03/26 04:15:46;;;;;;;13.35;7.13;;;2.80;99.90;;;;;;20977923;28;20075;-75
2021/03/26 04:26:13;;;;;;;16.55;7.45;;;2.40;99.90;;;;;;20993577;28;20027;-76
2021/03/26 04:36:54;;;;;;;20.27;9.23;;;2.50;99.90;;;;;;20967471;28;20049;-76
2021/03/26 04:47:44;;;;;;;19.67;9.43;;;2.00;99.90;;;;;;20953536;28;20024;-76
2021/03/26 04:58:18;;;;;;;18.00;9.02;;;2.00;99.90;;;;;;20953343;28;20510;-76
2021/03/26 05:09:05;;;;;;;24.55;8.98;;;2.40;99.90;;;;;;20976330;28;20041;-75
2021/03/26 05:19:13;;;;;;;19.33;8.27;;;2.50;99.90;;;;;;20989691;28;20033;-75
2021/03/26 05:29:15;;;;;;;26.42;9.77;;;2.70;99.90;;;;;;20969221;28;20094;-75
2021/03/26 05:39:23;;;;;;;25.05;11.10;;;2.50;99.90;;;;;;20971020;28;20102;-76
2021/03/26 05:50:01;;;;;;;48.80;19.35;;;2.80;99.90;;;;;;20988319;28;20068;-75
2021/03/26 06:00:38;;;;;;;16.23;8.23;;;2.70;99.90;;;;;;20986125;28;20024;-75
2021/03/26 06:11:56;;;;;;;19.23;8.57;;;3.20;99.90;;;;;;20938482;28;20025;-76
2021/03/26 06:22:43;;;;;;;14.73;8.13;;;3.70;99.90;;;;;;20972611;28;20072;-76
2021/03/26 06:33:57;;;;;;;17.17;8.20;;;4.40;99.90;;;;;;21000842;28;20040;-75
2021/03/26 06:44:38;;;;;;;27.50;10.35;;;5.00;99.90;;;;;;20915476;28;20449;-75
2021/03/26 06:55:16;;;;;;;16.48;8.63;;;5.70;99.90;;;;;;20998921;28;20028;-75
2021/03/26 07:05:29;;;;;;;20.15;8.70;;;6.60;99.90;;;;;;20997882;28;20043;-76
2021/03/26 07:15:41;;;;;;;18.77;9.25;;;7.50;99.90;;;;;;20996268;28;20384;-75
2021/03/26 07:25:53;;;;;;;18.90;8.60;;;8.00;99.90;;;;;;20996348;28;20047;-75
2021/03/26 07:36:05;;;;;;;;;;;8.60;99.90;;;;;;20995486;28;20036;-75
2021/03/26 07:46:34;;;;;;;17.38;8.55;;;9.80;99.90;;;;;;20994946;28;20286;-76
2021/03/26 07:57:19;;;;;;;23.40;8.77;;;10.10;99.90;;;;;;20993592;28;20112;-76
2021/03/26 08:07:38;;;;;;;18.02;8.32;;;10.60;99.90;;;;;;20971367;28;20450;-76
2021/03/26 08:17:42;;;;;;;16.15;8.48;;;11.40;99.90;;;;;;20994322;28;20031;-77
2021/03/26 08:27:47;;;;;;;20.25;7.90;;;11.50;99.90;;;;;;20994282;28;20026;-76
2021/03/26 08:38:21;;;;;;;15.85;8.43;;;11.80;99.90;;;;;;21010233;23;20041;-76
2021/03/26 08:48:30;;;;;;;17.27;8.93;;;11.80;99.90;;;;;;20994081;28;20068;-77
2021/03/26 08:58:53;;;;;;;15.88;8.35;;;12.50;99.90;;;;;;20991000;28;20127;-76
2021/03/26 09:09:32;;;;;;;19.30;8.32;;;13.40;99.90;;;;;;20994783;28;20036;-75
2021/03/26 09:19:51;;;;;;;14.88;7.93;;;14.00;99.90;;;;;;20995512;28;20414;-77
2021/03/26 09:30:14;;;;;;;18.30;8.15;;;15.70;99.90;;;;;;20996704;28;20033;-76
2021/03/26 09:40:44;;;;;;;15.98;8.57;;;16.40;99.90;;;;;;20990413;28;20383;-76
2021/03/26 09:51:04;;;;;;;16.35;8.68;;;17.10;99.90;;;;;;21006588;28;20025;-77
2021/03/26 10:01:20;;;;;;;15.80;8.15;;;17.40;99.90;;;;;;21027052;28;20059;-78
2021/03/26 10:11:29;;;;;;;17.40;8.63;;;18.50;99.90;;;;;;21016027;28;20033;-77
2021/03/26 10:21:33;;;;;;;13.65;7.78;;;19.00;99.90;;;;;;21013412;28;20029;-77
2021/03/26 10:31:37;;;;;;;12.93;7.78;;;20.50;99.90;;;;;;21020749;28;20403;-76
2021/03/26 10:42:02;;;;;;;17.70;7.95;;;20.50;99.90;;;;;;21020497;28;20055;-78
2021/03/26 10:52:26;;;;;;;19.02;7.90;;;19.30;99.90;;;;;;21010003;28;20406;-77
2021/03/26 11:02:49;;;;;;;11.18;6.18;;;20.50;99.90;;;;;;21014898;28;20398;-78
2021/03/26 11:13:30;;;;;;;12.93;5.22;;;20.90;98.10;;;;;;21012588;28;20406;-77
2021/03/26 11:23:38;;;;;;;12.02;6.78;;;21.40;97.00;;;;;;20990609;28;20052;-77
2021/03/26 11:33:49;;;;;;;9.18;5.72;;;20.20;97.20;;;;;;20995725;28;20032;-76
2021/03/26 11:43:55;;;;;;;9.50;5.38;;;20.90;95.70;;;;;;20998730;28;20086;-75
2021/03/26 11:54:07;;;;;;;9.05;5.55;;;20.00;96.40;;;;;;20998276;28;20503;-75
2021/03/26 12:04:13;;;;;;;8.20;4.95;;;18.90;98.40;;;;;;20976166;28;20028;-76
2021/03/26 12:14:23;;;;;;;10.32;5.45;;;19.00;98.60;;;;;;20993938;28;20423;-76
2021/03/26 12:24:41;;;;;;;8.77;4.88;;;20.40;94.70;;;;;;20992338;28;20418;-76
2021/03/26 12:34:58;;;;;;;8.95;4.47;;;21.00;94.40;;;;;;20991083;28;20090;-76
2021/03/26 12:45:20;;;;;;;7.32;4.90;;;20.00;92.80;;;;;;20995170;28;20036;-76
2021/03/26 12:55:34;;;;;;;9.43;4.50;;;19.50;94.70;;;;;;20990970;28;20130;-76
2021/03/26 13:05:38;;;;;;;11.52;4.50;;;20.10;92.80;;;;;;20989777;28;20029;-76
2021/03/26 13:15:40;;;;;;;12.60;4.47;;;20.50;93.30;;;;;;20988364;28;20608;-75
2021/03/26 13:25:51;;;;;;;10.50;4.43;;;21.00;91.90;;;;;;21001660;28;20569;-75
2021/03/26 13:36:24;;;;;;;7.93;3.85;;;19.50;91.50;;;;;;20987220;28;20032;-75
2021/03/26 13:46:29;;;;;;;6.10;3.50;;;18.20;93.80;;;;;;20923067;28;20458;-77
2021/03/26 13:56:38;;;;;;;10.63;3.92;;;18.40;95.20;;;;;;20987405;28;20555;-76
2021/03/26 14:06:50;;;;;;;7.95;3.20;;;18.20;96.10;;;;;;21002238;28;20028;-75
2021/03/26 14:17:03;;;;;;;10.63;3.70;;;18.00;91.70;;;;;;20951692;28;20047;-77
2021/03/26 14:27:03;;;;;;;;;;;17.40;94.50;;;;;;20907170;28;20507;-77
2021/03/26 14:37:23;;;;;;;9.33;3.70;;;17.30;92.40;;;;;;20964647;23;20416;-75
2021/03/26 14:47:32;;;;;;;11.52;5.47;;;17.10;93.00;;;;;;20980802;28;20051;-76
2021/03/26 14:57:39;;;;;;;6.75;3.28;;;17.30;93.70;;;;;;20977643;28;20045;-76
2021/03/26 15:07:42;;;;;;;6.05;3.35;;;17.10;93.70;;;;;;20977104;28;20044;-75
2021/03/26 15:17:58;;;;;;;4.00;2.83;;;16.80;94.70;;;;;;20975955;28;20041;-76
2021/03/26 15:28:04;;;;;;;9.90;3.67;;;16.50;94.30;;;;;;20934456;28;20037;-77
2021/03/26 15:38:24;;;;;;;6.80;3.72;;;16.50;95.30;;;;;;20930088;28;20047;-76
2021/03/26 15:48:45;;;;;;;9.00;4.43;;;16.50;94.80;;;;;;20931860;28;20071;-76
2021/03/26 15:58:46;;;;;;;5.80;3.60;;;16.50;94.80;;;;;;20909554;28;20028;-76
2021/03/26 16:09:01;;;;;;;5.88;3.17;;;16.30;94.40;;;;;;20917989;28;20036;-77
2021/03/26 16:19:20;;;;;;;7.25;3.33;;;16.10;94.50;;;;;;20892150;28;20700;-76
2021/03/26 16:29:47;;;;;;;12.57;5.70;;;16.00;95.30;;;;;;20950627;28;20051;-77
2021/03/26 16:39:51;;;;;;;8.70;4.00;;;15.80;95.90;;;;;;20929325;28;20033;-76
2021/03/26 16:49:57;;;;;;;6.90;3.75;;;15.70;95.50;;;;;;20929869;28;20695;-76
2021/03/26 17:00:25;;;;;;;10.57;5.00;;;15.60;96.80;;;;;;20938726;28;20107;-76
2021/03/26 17:10:51;;;;;;;8.15;3.97;;;15.40;97.00;;;;;;20927928;28;20119;-76
2021/03/26 17:21:30;;;;;;;11.23;4.35;;;15.20;98.10;;;;;;20951915;28;20037;-77
2021/03/26 17:32:05;;;;;;;7.30;4.13;;;15.00;99.20;;;;;;20909473;28;20045;-79
2021/03/26 17:42:18;;;;;;;8.68;4.43;;;15.00;99.90;;;;;;20954579;28;20035;-77
2021/03/26 17:52:56;;;;;;;7.90;3.58;;;14.80;99.60;;;;;;20930028;28;20392;-77
2021/03/26 18:03:24;;;;;;;9.77;4.50;;;14.30;99.90;;;;;;20901038;28;20834;-77
2021/03/26 18:13:43;;;;;;;11.38;4.93;;;13.90;99.90;;;;;;20897868;28;20025;-78
2021/03/26 18:23:52;;;;;;;10.75;5.47;;;13.40;99.90;;;;;;20970841;28;20036;-77
2021/03/26 18:34:18;;;;;;;11.63;5.30;;;12.90;99.90;;;;;;20948029;28;20036;-77
2021/03/26 18:44:46;;;;;;;13.57;5.80;;;12.50;99.90;;;;;;20941334;28;20067;-77
2021/03/26 18:55:32;;;;;;;12.30;5.68;;;12.20;99.90;;;;;;20956106;28;20032;-78
2021/03/26 19:05:43;;;;;;;11.98;5.93;;;12.00;99.90;;;;;;20953197;28;20051;-77
2021/03/26 19:15:57;;;;;;;10.15;6.25;;;11.90;99.90;;;;;;20896400;28;20041;-78
2021/03/26 19:26:03;;;;;;;12.38;6.72;;;11.60;99.90;;;;;;20931577;28;20851;-78
2021/03/26 19:36:22;;;;;;;13.85;6.32;;;11.00;99.90;;;;;;20949313;28;20028;-78
2021/03/26 19:46:29;;;;;;;9.05;5.65;;;10.70;99.90;;;;;;20949937;28;20113;-76
2021/03/26 19:56:41;;;;;;;12.48;4.88;;;10.50;99.90;;;;;;20968279;28;20056;-78
2021/03/26 20:07:01;;;;;;;40.50;14.45;;;11.00;99.90;;;;;;20951808;28;20344;-78
2021/03/26 20:17:18;;;;;;;16.67;7.43;;;11.10;99.90;;;;;;20903871;28;20498;-76
2021/03/26 20:27:27;;;;;;;15.52;6.75;;;10.40;99.90;;;;;;20913539;28;20052;-76
2021/03/26 20:37:51;;;;;;;12.23;6.10;;;10.30;99.90;;;;;;20964154;28;20033;-76
2021/03/26 20:48:18;;;;;;;15.63;7.40;;;10.70;99.90;;;;;;20958033;28;20111;-76
2021/03/26 20:58:28;;;;;;;22.67;9.63;;;9.90;99.90;;;;;;20921223;28;20040;-78
2021/03/26 21:08:35;;;;;;;28.42;10.30;;;10.30;99.90;;;;;;20967349;28;20036;-77
2021/03/26 21:18:52;;;;;;;16.13;7.82;;;10.10;99.90;;;;;;20968132;28;20053;-78
2021/03/26 21:29:19;;;;;;;16.73;7.13;;;9.40;99.90;;;;;;20969779;28;20036;-77
2021/03/26 21:39:37;;;;;;;10.82;6.95;;;9.80;99.90;;;;;;20966785;28;20024;-76
2021/03/26 21:49:57;;;;;;;20.63;8.50;;;9.90;99.90;;;;;;20969572;28;20040;-78
2021/03/26 22:00:17;;;;;;;18.55;8.38;;;9.40;99.90;;;;;;20911201;28;20032;-77
2021/03/26 22:10:42;;;;;;;19.88;8.63;;;8.90;99.90;;;;;;20938400;28;20486;-77
2021/03/26 22:20:46;;;;;;;27.65;9.90;;;9.10;99.90;;;;;;20951532;28;20040;-77
2021/03/26 22:30:57;;;;;;;15.75;8.60;;;8.60;99.90;;;;;;21000205;23;20036;-78
2021/03/26 22:41:15;;;;;;;14.52;8.55;;;8.80;99.90;;;;;;20974136;28;20052;-79
2021/03/26 22:51:59;;;;;;;13.40;8.35;;;9.10;99.90;;;;;;20904210;28;20037;-77
2021/03/26 23:02:07;;;;;;;18.92;9.25;;;8.80;99.90;;;;;;20883014;28;20045;-78
2021/03/26 23:12:25;;;;;;;16.90;9.00;;;9.00;99.90;;;;;;20888759;28;20035;-79
2021/03/26 23:22:28;;;;;;;13.93;7.32;;;9.60;99.90;;;;;;20907581;28;20442;-79
2021/03/26 23:32:44;;;;;;;15.00;8.70;;;9.70;99.90;;;;;;20898920;28;20075;-80
2021/03/26 23:42:50;;;;;;;22.95;10.25;;;9.70;99.90;;;;;;20904077;28;20028;-79
2021/03/26 23:52:59;;;;;;;19.00;9.80;;;9.70;99.90;;;;;;20921127;28;20486;-79
